Flight Track Log - Related Links

Times and Time Zones

All times are in EDT time to prevent confusion due to time zone crossing. See the DAL6231 flight status page for this flight to view local times or setup timezone preferences in your user account.

Time Position Orientation Groundspeed Altitude Reporting Facility
EDT Latitude Longitude Course Direction KTS MPH feet Rate Location/Type
Wed 09:04:07 PM 40.7500 -73.8167 44° Northeast 156 180 2,000  Level New York TRACON
Wed 09:05:38 PM 40.8067 -73.7564 39° Northeast 191 220 5,200 2,265 Climbing Boston Center
Wed 09:06:38 PM 40.8697 -73.7136 27° Northeast 211 243 7,700 2,622 Climbing Boston Center
Wed 09:07:37 PM 40.9206 -73.6322 50° Northeast 248 285 10,400 2,231 Climbing Boston Center
Wed 09:08:39 PM 41.0008 -73.5456 39° Northeast 306 352 12,200 1,967 Climbing Boston Center
Wed 09:09:00 PM 41.1821 -73.3731 44° Northeast  Level FlightAware Approximate
Wed 09:09:39 PM 41.0767 -73.4644 39° Northeast 347 399 14,400  Level Boston Center
Wed 09:10:38 PM 41.1483 -73.3636 47° Northeast 365 420 16,600 1,850 Climbing Boston Center
Wed 09:11:39 PM 41.2117 -73.2650 49° Northeast 374 430 18,100 1,916 Climbing Boston Center
Wed 09:12:37 PM 41.2811 -73.1500 51° Northeast 386 444 20,400 2,237 Climbing Boston Center
Wed 09:13:37 PM 41.3506 -73.0347 51° Northeast 397 457 22,500 1,300 Climbing Boston Center
Wed 09:14:37 PM 41.4283 -72.9053 51° Northeast 397 457 23,000 950 Climbing Boston Center
Wed 09:15:37 PM 41.5036 -72.7811 51° Northeast 408 470 24,400 1,388 Climbing Boston Center
Wed 09:16:38 PM 41.5667 -72.6731 52° Northeast 413 475 25,800 1,339 Climbing Boston Center
Wed 09:17:38 PM 41.6292 -72.5289 60° Northeast 423 487 27,100 1,109 Climbing Boston Center
Wed 09:18:37 PM 41.6625 -72.3622 75° East 439 505 28,000 1,008 Climbing Boston Center
Wed 09:19:37 PM 41.6956 -72.1844 76° East 457 526 29,100 1,289 Climbing Boston Center
Wed 09:20:38 PM 41.7431 -72.0006 71° East 476 548 30,600 1,488 Climbing Boston Center
Wed 09:21:38 PM 41.8111 -71.8553 58° Northeast 458 527 32,100 1,462 Climbing Boston Center
Wed 09:22:37 PM 41.8750 -71.7125 59° Northeast 453 521 33,500 1,311 Climbing Boston Center
Wed 09:23:37 PM 41.9406 -71.5719 58° Northeast 446 513 34,700 992 Climbing Boston Center
Wed 09:24:38 PM 42.0125 -71.4397 54° Northeast 440 506 35,500 836 Climbing Boston Center
Wed 09:25:39 PM 42.0736 -71.2989 60° Northeast 440 506 36,400 756 Climbing Boston Center
Wed 09:26:37 PM 42.1389 -71.1550 59° Northeast 440 506 37,000 305 Climbing Boston Center
Wed 09:27:37 PM 42.2058 -71.0106 58° Northeast 435 501 37,000  Level Boston Center
Wed 09:28:38 PM 42.2686 -70.8717 59° Northeast 435 501 37,000  Level Boston Center
Wed 09:29:39 PM 42.3311 -70.7242 60° Northeast 435 501 37,000  Level Boston Center
Wed 09:30:39 PM 42.3936 -70.5847 59° Northeast 435 501 37,000  Level Boston Center
Wed 09:31:38 PM 42.4558 -70.4422 59° Northeast 435 501 37,000  Level Boston Center
Wed 09:32:38 PM 42.5200 -70.2992 59° Northeast 435 501 37,000  Level Boston Center
Wed 09:33:39 PM 42.5817 -70.1561 60° Northeast 435 501 37,000  Level Boston Center
Wed 09:34:39 PM 42.6414 -70.0156 60° Northeast 435 501 37,000  Level Boston Center
Wed 09:35:40 PM 42.7050 -69.8717 59° Northeast 435 501 37,000  Level Boston Center
Wed 09:36:38 PM 42.7703 -69.7303 58° Northeast 435 501 37,000  Level Boston Center
Wed 09:37:39 PM 42.8314 -69.5861 60° Northeast 435 501 37,000  Level Boston Center
Wed 09:38:40 PM 42.8864 -69.4561 60° Northeast 435 501 37,000  Level Boston Center
Wed 09:39:37 PM 42.9472 -69.3142 60° Northeast 435 501 37,000  Level Boston Center
Wed 09:40:37 PM 43.0278 -69.2047 45° Northeast 427 491 37,000  Level Boston Center
Wed 09:41:38 PM 43.1250 -69.1058 37° Northeast 402 463 37,000  Level Boston Center
Wed 09:42:38 PM 43.2097 -69.0186 37° Northeast 392 451 37,000  Level Boston Center
Wed 09:42:53 PM 43.2000 -69.0000 126° Southeast 400 460 37,000  Level Moncton Center
Wed 09:43:53 PM 43.2833 -68.9167 36° Northeast 390 449 37,000  Level Moncton Center
Wed 09:44:53 PM 43.3833 -68.8167 36° Northeast 390 449 37,000  Level Moncton Center
Wed 09:45:53 PM 43.4667 -68.7333 36° Northeast 390 449 37,000  Level Moncton Center
Wed 09:46:53 PM 43.5500 -68.6333 41° Northeast 390 449 37,000  Level Moncton Center
Wed 09:47:40 PM 43.6392 -68.5581 31° Northeast 382 440 37,000  Level Boston Center
Wed 09:48:38 PM 43.7258 -68.4692 37° Northeast 382 440 37,000  Level Boston Center
Wed 09:49:40 PM 43.8100 -68.3742 39° Northeast 382 440 37,000  Level Boston Center
Wed 09:50:38 PM 43.8983 -68.2817 37° Northeast 382 440 37,000  Level Boston Center
Wed 09:51:39 PM 43.9825 -68.1836 40° Northeast 382 440 37,000  Level Boston Center
Wed 09:52:37 PM 44.0686 -68.0908 38° Northeast 382 440 37,000  Level Boston Center
Wed 09:52:53 PM 44.0833 -68.0667 50° Northeast 390 449 37,000  Level Moncton Center
Wed 09:53:38 PM 44.1547 -67.9975 35° Northeast 382 440 37,000  Level Boston Center
Wed 09:54:40 PM 44.2406 -67.9042 38° Northeast 382 440 37,000  Level Boston Center
Wed 09:55:38 PM 44.3244 -67.8106 39° Northeast 382 440 37,000  Level Boston Center
Wed 09:56:53 PM 44.4167 -67.7000 41° Northeast 390 449 37,000  Level Moncton Center
Wed 09:57:53 PM 44.4833 -67.6167 42° Northeast 390 449 37,000 -400 Level Moncton Center
Wed 09:58:53 PM 44.5833 -67.4667 47° Northeast 400 460 36,200 -971 Descending Moncton Center
Wed 09:59:38 PM 44.6256 -67.3869 53° Northeast 395 455 35,300 -1,358 Descending Boston Center
Wed 10:00:39 PM 44.6439 -67.1869 83° East 435 501 33,800 -1,600 Descending Boston Center
Wed 10:01:53 PM 44.6500 -66.9333 88° East 500 575 31,700 -1,612 Descending Moncton Center
Wed 10:02:53 PM 44.6667 -66.7167 84° East 500 575 30,200 -1,550 Descending Moncton Center
Wed 10:03:53 PM 44.6833 -66.5333 83° East 490 564 28,600 -1,650 Descending Moncton Center
Wed 10:04:53 PM 44.6833 -66.3500 90° East 470 541 26,900 -1,550 Descending Moncton Center
Wed 10:05:53 PM 44.7000 -66.1833 82° East 450 518 25,500 -1,450 Descending Moncton Center
Wed 10:06:53 PM 44.7333 -66.0000 76° East 460 529 24,000 -1,500 Descending Moncton Center
Wed 10:07:53 PM 44.7333 -65.8167 90° East 470 541 22,500 -1,500 Descending Moncton Center
Wed 10:08:53 PM 44.7500 -65.6500 82° East 470 541 21,000 -1,550 Descending Moncton Center
Wed 10:09:53 PM 44.7500 -65.4500 90° East 440 506 19,400 -1,500 Descending Moncton Center
Wed 10:10:53 PM 44.7667 -65.3000 81° East 430 495 18,000 -1,300 Descending Moncton Center
Wed 10:11:53 PM 44.7667 -65.1333 90° East 420 483 16,800 -1,400 Descending Moncton Center
Wed 10:12:53 PM 44.7833 -64.9667 82° East 420 483 15,200 -1,500 Descending Moncton Center
Wed 10:13:53 PM 44.7833 -64.8000 90° East 420 483 13,800 -1,500 Descending Moncton Center
Wed 10:14:53 PM 44.7833 -64.6500 90° East 400 460 12,200 -1,500 Descending Moncton Center
Wed 10:15:53 PM 44.7667 -64.5167 100° East 350 403 10,800 -1,500 Descending Moncton Center
Wed 10:16:53 PM 44.7500 -64.4000 101° East 320 368 9,200 -1,500 Descending Moncton Center
Wed 10:17:53 PM 44.7500 -64.2833 90° East 310 357 7,800 -1,250 Descending Moncton Center
Wed 10:18:53 PM 44.7333 -64.1667 101° East 290 334 6,700 -1,150 Descending Moncton Center
Wed 10:19:53 PM 44.7333 -64.0667 90° East 260 299 5,500 -1,150 Descending Moncton Center
Wed 10:20:53 PM 44.7167 -63.9667 103° East 250 288 4,400 -1,150 Descending Moncton Center
Wed 10:21:53 PM 44.7167 -63.8833 90° East 250 288 3,200 -1,150 Descending Moncton Center
Wed 10:22:53 PM 44.7167 -63.7833 90° East 240 276 2,100 -550 Descending Moncton Center
Wed 10:23:53 PM 44.7333 -63.7167 71° East 200 230 2,100 -50 Level Moncton Center
Wed 10:24:53 PM 44.7333 -63.6500 90° East 160 184 2,000  Descending Moncton Center
Wed 10:25:53 PM 44.7667 -63.6000 47° Northeast 150 173 2,100 -50 Climbing Moncton Center
Wed 10:26:53 PM 44.7833 -63.5667 55° Northeast 130 150 1,900 -400 Descending Moncton Center
Wed 10:27:53 PM 44.8167 -63.5500 20° North 110 127 1,300 -550 Descending Moncton Center
Wed 10:28:53 PM 44.8500 -63.5167 35° Northeast 120 138 800 -500 Descending Moncton Center

Login

Don't have an account? Register now (free) for customized features, flight alerts, and more!